Time;durP1;ratioP1;P1;durP2;ratioP2;P2;SDS_P1;SDS_P2;PMS_P1;PMS_P2;Temp;Humidity;BMP_temperature;BMP_pressure;BME280_temperature;BME280_humidity;BME280_pressure;Samples;Min_cycle;Max_cycle;Signal;HPM_P1;HPM_P2
2023/05/27 00:01:48;;;;;;;24.10;4.90;;;;;;;10.54;100.00;102221.75;4919055;29;20415;-76
2023/05/27 00:04:15;;;;;;;31.63;5.35;;;;;;;10.55;100.00;102226.13;4916802;29;20062;-77
2023/05/27 00:06:42;;;;;;;25.98;5.18;;;;;;;10.32;100.00;102230.63;4917839;29;20056;-78
2023/05/27 00:09:09;;;;;;;23.20;4.65;;;;;;;10.33;100.00;102235.84;4917534;29;20060;-76
2023/05/27 00:11:35;;;;;;;22.85;5.13;;;;;;;10.34;100.00;102225.97;4917058;29;20052;-76
2023/05/27 00:14:02;;;;;;;18.38;4.80;;;;;;;10.12;100.00;102232.19;4917842;29;20472;-77
2023/05/27 00:16:29;;;;;;;23.92;5.38;;;;;;;10.20;100.00;102229.75;4917081;29;20167;-76
2023/05/27 00:18:55;;;;;;;20.75;4.90;;;;;;;10.38;100.00;102228.31;4917200;29;20052;-78
2023/05/27 00:21:22;;;;;;;23.95;4.65;;;;;;;10.30;100.00;102219.16;4916005;29;20056;-78
2023/05/27 00:23:51;;;;;;;18.25;4.82;;;;;;;10.39;100.00;102221.97;4916682;29;20048;-77
2023/05/27 00:26:17;;;;;;;25.83;4.78;;;;;;;10.39;100.00;102221.97;4917063;29;20052;-78
2023/05/27 00:28:44;;;;;;;19.88;4.95;;;;;;;10.39;100.00;102221.13;4916929;29;20067;-78
2023/05/27 00:31:11;;;;;;;28.08;5.60;;;;;;;10.60;100.00;102227.47;4917149;29;20048;-78
2023/05/27 00:33:37;;;;;;;16.55;4.70;;;;;;;10.59;100.00;102230.28;4916285;29;20062;-78
2023/05/27 00:36:04;;;;;;;19.85;4.47;;;;;;;10.56;100.00;102227.84;4915485;29;20104;-76
2023/05/27 00:38:31;;;;;;;22.08;5.10;;;;;;;10.54;100.00;102224.44;4899433;29;20056;-77
2023/05/27 00:41:00;;;;;;;21.08;4.95;;;;;;;10.50;100.00;102227.34;4916134;29;20051;-77
2023/05/27 00:43:27;;;;;;;21.60;4.75;;;;;;;10.47;100.00;102229.38;4915900;29;20076;-78
2023/05/27 00:45:54;;;;;;;20.95;4.60;;;;;;;9.99;100.00;102226.94;4916141;29;20080;-77
2023/05/27 00:48:21;;;;;;;22.10;4.72;;;;;;;10.03;100.00;102229.28;4915712;29;20059;-78
2023/05/27 00:50:48;;;;;;;19.90;4.28;;;;;;;10.12;100.00;102227.69;4915950;29;20452;-78
2023/05/27 00:53:17;;;;;;;21.80;5.18;;;;;;;10.23;100.00;102225.00;4899342;29;20519;-75
2023/05/27 00:55:43;;;;;;;18.13;4.80;;;;;;;10.15;100.00;102231.97;4916311;29;20420;-76
2023/05/27 00:58:10;;;;;;;19.02;4.97;;;;;;;10.13;100.00;102228.53;4916342;29;20052;-77
2023/05/27 01:00:38;;;;;;;23.23;5.13;;;;;;;10.23;100.00;102232.19;4916144;29;20048;-78
2023/05/27 01:03:08;;;;;;;21.48;5.20;;;;;;;10.18;100.00;102227.19;4915750;29;20048;-77
2023/05/27 01:09:37;;;;;;;20.27;4.95;;;;;;;10.15;100.00;102227.44;4912180;29;20132;-78
2023/05/27 01:12:10;;;;;;;19.80;4.75;;;;;;;10.18;100.00;102218.31;4914703;29;20173;-76
2023/05/27 01:14:38;;;;;;;16.02;4.50;;;;;;;10.11;100.00;102225.13;4912896;29;20048;-76
2023/05/27 01:17:06;;;;;;;26.08;5.55;;;;;;;10.08;100.00;102220.00;4913648;29;20048;-76
2023/05/27 01:19:34;;;;;;;27.58;5.03;;;;;;;10.08;100.00;102220.00;4914342;29;20044;-77
2023/05/27 01:22:01;;;;;;;27.70;5.60;;;;;;;10.09;100.00;102224.38;4914723;29;25070;-74
2023/05/27 01:24:28;;;;;;;24.70;5.40;;;;;;;10.11;100.00;102225.13;4917216;29;20060;-72
2023/05/27 01:27:00;;;;;;;18.20;4.20;;;;;;;10.10;100.00;102229.66;4917657;29;20052;-73
2023/05/27 01:29:28;;;;;;;20.30;4.57;;;;;;;10.11;100.00;102227.81;4918599;29;20056;-73
2023/05/27 01:32:26;;;;;;;17.85;4.53;;;;;;;10.09;100.00;102232.44;4916586;29;20047;-74
2023/05/27 01:35:14;;;;;;;27.35;5.45;;;;;;;10.10;100.00;102220.72;4918058;29;20051;-72
2023/05/27 01:37:43;;;;;;;16.33;4.22;;;;;;;10.04;100.00;102214.88;4917310;29;20048;-72
2023/05/27 01:40:12;;;;;;;21.83;5.00;;;;;;;10.00;100.00;102217.94;4918139;29;20048;-73
2023/05/27 01:42:41;;;;;;;18.20;4.10;;;;;;;10.02;100.00;102219.50;4913744;29;20052;-73
2023/05/27 01:45:08;;;;;;;23.80;5.22;;;;;;;10.05;100.00;102205.00;4918363;29;20044;-72
2023/05/27 01:47:35;;;;;;;27.33;5.50;;;;;;;10.05;100.00;102210.38;4916671;29;20123;-74
2023/05/27 01:50:02;;;;;;;25.13;4.97;;;;;;;10.06;100.00;102217.44;4918508;29;20052;-73
2023/05/27 01:52:29;;;;;;;22.05;4.40;;;;;;;10.00;100.00;102207.22;4915873;29;20096;-72
2023/05/27 01:54:56;;;;;;;20.20;5.10;;;;;;;10.04;100.00;102203.31;4917229;29;20127;-73
2023/05/27 01:57:24;;;;;;;27.75;4.97;;;;;;;10.04;100.00;102198.78;4917016;29;20071;-73
2023/05/27 01:59:51;;;;;;;28.58;5.03;;;;;;;10.08;100.00;102203.91;4917822;29;20048;-72
2023/05/27 02:02:17;;;;;;;25.63;5.75;;;;;;;10.08;100.00;102202.09;4917358;29;20052;-73
2023/05/27 02:04:44;;;;;;;23.38;5.15;;;;;;;9.83;100.00;102205.84;4919221;29;20054;-73
2023/05/27 02:07:11;;;;;;;28.38;6.13;;;;;;;9.74;100.00;102206.53;4917389;29;20056;-77
2023/05/27 02:09:38;;;;;;;18.35;4.72;;;;;;;9.68;100.00;102196.28;4915354;29;20080;-77
2023/05/27 02:12:06;;;;;;;19.92;4.90;;;;;;;9.94;100.00;102205.84;4914712;29;20489;-70
2023/05/27 02:14:34;;;;;;;21.52;4.60;;;;;;;9.91;100.00;102198.03;4913027;29;20489;-70
2023/05/27 02:17:03;;;;;;;23.08;5.07;;;;;;;9.89;100.00;102200.00;4914118;29;20059;-71
2023/05/27 02:19:30;;;;;;;26.30;4.57;;;;;;;9.78;100.00;102197.28;4914670;29;20108;-77
2023/05/27 02:21:57;;;;;;;26.63;4.88;;;;;;;9.69;100.00;102198.00;4913388;29;20456;-77
2023/05/27 02:24:25;;;;;;;24.50;4.97;;;;;;;9.77;100.00;102198.25;4913729;29;20074;-77
2023/05/27 02:26:51;;;;;;;23.65;5.22;;;;;;;9.74;100.00;102193.13;4914523;29;20071;-77
2023/05/27 02:29:18;;;;;;;26.05;4.85;;;;;;;9.54;100.00;102200.91;4914569;29;20059;-77
2023/05/27 02:31:44;;;;;;;24.83;5.30;;;;;;;9.51;100.00;102200.28;4932392;29;20484;-77
2023/05/27 02:34:11;;;;;;;25.13;5.18;;;;;;;9.50;100.00;102193.19;4933782;29;20056;-77
2023/05/27 02:36:38;;;;;;;20.52;5.20;;;;;;;9.44;100.00;102199.91;4934550;29;20460;-77
2023/05/27 02:39:05;;;;;;;36.88;6.32;;;;;;;9.39;100.00;102196.69;4933280;29;20053;-78
2023/05/27 02:41:32;;;;;;;29.15;5.20;;;;;;;9.58;100.00;102201.53;4933929;29;20083;-76
2023/05/27 02:43:59;;;;;;;31.83;5.85;;;;;;;9.61;100.00;102209.31;4933820;29;20102;-76
2023/05/27 02:46:26;;;;;;;21.30;4.43;;;;;;;9.61;100.00;102205.78;4932398;29;20047;-77
2023/05/27 02:48:52;;;;;;;25.58;5.57;;;;;;;9.62;100.00;102210.19;4931594;29;20099;-77
2023/05/27 02:51:19;;;;;;;30.92;6.10;;;;;;;9.44;100.00;102209.72;4931245;29;20062;-78
2023/05/27 02:53:45;;;;;;;27.40;5.57;;;;;;;9.37;100.00;102209.38;4933404;29;20078;-76
2023/05/27 02:56:12;;;;;;;21.10;5.00;;;;;;;9.35;100.00;102211.31;4934152;29;20071;-77
2023/05/27 02:58:38;;;;;;;21.25;5.45;;;;;;;9.46;100.00;102214.00;4914727;29;20044;-71
2023/05/27 03:01:05;;;;;;;24.38;6.32;;;;;;;9.57;100.00;102211.34;4916990;29;20103;-73
2023/05/27 03:03:31;;;;;;;16.75;4.55;;;;;;;9.60;100.00;102218.31;4917956;29;20111;-72
2023/05/27 03:05:58;;;;;;;24.45;5.10;;;;;;;9.40;100.00;102213.63;4917597;29;20062;-71
2023/05/27 03:08:25;;;;;;;23.77;5.38;;;;;;;9.39;100.00;102217.28;4917584;29;20472;-72
2023/05/27 03:10:52;;;;;;;30.02;5.20;;;;;;;9.52;100.00;102216.22;4917937;29;20070;-71
2023/05/27 03:13:18;;;;;;;33.38;6.30;;;;;;;9.59;100.00;102216.63;4916697;29;20398;-71
2023/05/27 03:15:45;;;;;;;23.25;5.40;;;;;;;9.55;100.00;102213.31;4912257;29;20211;-72
2023/05/27 03:18:11;;;;;;;25.40;5.93;;;;;;;9.50;100.00;102210.13;4917638;29;20107;-71
2023/05/27 03:20:38;;;;;;;25.58;6.18;;;;;;;9.48;100.00;102213.91;4917053;29;20040;-72
2023/05/27 03:23:04;;;;;;;30.80;6.50;;;;;;;9.50;100.00;102206.59;4915956;29;20135;-70
2023/05/27 03:25:33;;;;;;;30.33;6.60;;;;;;;9.48;100.00;102205.88;4917477;29;20107;-71
2023/05/27 03:28:00;;;;;;;30.77;6.30;;;;;;;9.57;100.00;102200.66;4917603;29;20049;-70
2023/05/27 03:30:26;;;;;;;28.60;6.40;;;;;;;9.54;100.00;102202.69;4916939;29;20048;-73
2023/05/27 03:32:53;;;;;;;24.83;6.03;;;;;;;9.47;100.00;102207.69;4916976;29;20496;-70
2023/05/27 03:35:20;;;;;;;30.98;6.05;;;;;;;9.32;100.00;102211.53;4917593;29;20052;-71
2023/05/27 03:37:46;;;;;;;31.85;6.10;;;;;;;9.34;100.00;102204.25;4916312;29;20047;-72
2023/05/27 03:40:13;;;;;;;28.38;6.70;;;;;;;9.42;100.00;102215.22;4899640;29;20048;-70
2023/05/27 03:42:40;;;;;;;29.23;6.00;;;;;;;9.42;100.00;102217.91;4917005;29;20044;-70
2023/05/27 03:45:07;;;;;;;33.47;6.18;;;;;;;9.56;100.00;102217.69;4916380;29;20459;-71
2023/05/27 03:47:35;;;;;;;21.05;6.00;;;;;;;9.63;100.00;102211.88;4916845;29;20448;-72
2023/05/27 03:50:03;;;;;;;33.50;6.60;;;;;;;9.64;100.00;102205.53;4916994;29;20059;-72
2023/05/27 03:52:29;;;;;;;26.83;6.07;;;;;;;9.60;100.00;102220.16;4916566;29;20409;-73
2023/05/27 03:54:56;;;;;;;27.00;6.10;;;;;;;9.32;100.00;102212.38;4916995;29;20050;-70
2023/05/27 03:57:23;;;;;;;34.10;5.65;;;;;;;9.26;100.00;102214.66;4916337;29;20103;-71
2023/05/27 03:59:49;;;;;;;26.20;5.65;;;;;;;9.45;100.00;102217.66;4916680;29;20064;-71
2023/05/27 04:02:16;;;;;;;28.70;5.57;;;;;;;9.51;100.00;102216.38;4916916;29;20116;-70
2023/05/27 04:04:43;;;;;;;22.70;5.90;;;;;;;9.40;100.00;102213.63;4916357;29;20131;-70
2023/05/27 04:07:12;;;;;;;24.77;6.15;;;;;;;9.29;100.00;102215.28;4917487;29;20052;-71
2023/05/27 04:09:39;;;;;;;25.08;5.80;;;;;;;9.57;100.00;102229.25;4935093;29;20048;-70
2023/05/27 04:12:07;;;;;;;29.83;6.18;;;;;;;9.59;100.00;102223.81;4933229;29;20122;-70
2023/05/27 04:14:33;;;;;;;23.05;6.82;;;;;;;9.70;100.00;102229.19;4918549;29;20468;-70
2023/05/27 04:17:00;;;;;;;23.70;5.55;;;;;;;9.81;100.00;102226.53;4935503;29;20052;-70
2023/05/27 04:19:27;;;;;;;27.55;6.57;;;;;;;9.70;100.00;102231.88;4934485;29;20059;-73
2023/05/27 04:21:53;;;;;;;25.40;6.97;;;;;;;9.85;100.00;102227.16;4934688;29;20111;-72
2023/05/27 04:24:20;;;;;;;23.77;5.80;;;;;;;9.92;100.00;102225.69;4934893;29;20047;-73
2023/05/27 04:26:46;;;;;;;23.85;5.35;;;;;;;9.92;100.00;102221.19;4935338;29;20062;-71
2023/05/27 04:29:15;;;;;;;20.05;5.80;;;;;;;9.92;100.00;102226.53;4935215;29;20043;-73
2023/05/27 04:31:41;;;;;;;30.83;6.72;;;;;;;10.07;100.00;102229.88;4915898;29;20076;-70
2023/05/27 04:34:08;;;;;;;31.55;5.85;;;;;;;10.11;100.00;102231.34;4881150;29;20405;-70
2023/05/27 04:36:35;;;;;;;26.75;6.22;;;;;;;10.08;100.00;102228.91;4897285;29;20068;-70
2023/05/27 04:39:02;;;;;;;23.15;5.68;;;;;;;10.13;100.00;102233.88;4896245;29;20425;-70
2023/05/27 04:41:29;;;;;;;29.92;6.72;;;;;;;10.14;100.00;102233.78;4897142;29;20048;-71
2023/05/27 04:43:56;;;;;;;38.50;6.00;;;;;;;10.22;100.00;102231.34;4897330;29;20421;-70
2023/05/27 04:46:24;;;;;;;28.48;6.63;;;;;;;10.23;100.00;102234.88;4897242;29;20052;-70
2023/05/27 04:48:52;;;;;;;31.95;6.47;;;;;;;10.27;100.00;102236.38;4896736;29;20469;-70
2023/05/27 04:51:19;;;;;;;22.92;5.85;;;;;;;10.32;100.00;102227.94;4897178;29;20060;-72
2023/05/27 04:53:47;;;;;;;26.02;6.38;;;;;;;10.22;100.00;102239.38;4896610;29;20048;-70
2023/05/27 04:56:16;;;;;;;29.50;6.47;;;;;;;10.23;100.00;102229.50;4895782;29;20397;-70
2023/05/27 04:58:46;;;;;;;24.92;6.03;;;;;;;10.20;100.00;102230.63;4896920;29;20076;-71
2023/05/27 05:01:21;;;;;;;26.90;6.32;;;;;;;10.18;100.00;102232.56;4895652;29;20132;-72
2023/05/27 05:06:34;;;;;;;37.72;8.10;;;;;;;10.24;100.00;102225.88;4896047;29;20104;-70
2023/05/27 05:09:04;;;;;;;31.17;7.13;;;;;;;10.44;100.00;102225.16;4895351;29;20052;-70
2023/05/27 05:11:31;;;;;;;29.80;6.43;;;;;;;10.50;100.00;102219.31;4896934;29;20082;-71
2023/05/27 05:13:57;;;;;;;25.95;5.38;;;;;;;10.59;100.00;102219.56;4880366;29;20069;-72
2023/05/27 05:16:24;;;;;;;24.15;6.45;;;;;;;10.59;100.00;102219.56;4895581;29;20084;-72
2023/05/27 05:18:50;;;;;;;30.50;6.38;;;;;;;10.66;100.00;102220.75;4895249;29;20139;-71
2023/05/27 05:21:17;;;;;;;25.08;5.40;;;;;;;10.71;100.00;102218.53;4893565;29;20079;-71
2023/05/27 05:23:44;;;;;;;26.85;5.95;;;;;;;10.72;100.00;102218.44;4900083;29;20048;-71
2023/05/27 05:26:11;;;;;;;24.35;5.55;;;;;;;10.61;100.00;102226.47;4914845;29;20127;-71
2023/05/27 05:28:37;;;;;;;18.40;5.30;;;;;;;10.82;100.00;102225.72;4913599;29;20071;-71
2023/05/27 05:31:04;;;;;;;21.88;5.72;;;;;;;10.70;100.00;102228.44;4914634;29;20075;-73
2023/05/27 05:33:30;;;;;;;24.88;5.97;;;;;;;10.74;100.00;102229.88;4913550;29;20476;-71
2023/05/27 05:35:57;;;;;;;18.40;5.47;;;;;;;10.86;100.00;102232.53;4914640;29;20131;-72
2023/05/27 05:38:24;;;;;;;23.25;5.07;;;;;;;10.96;100.00;102225.44;4913334;29;20048;-71
2023/05/27 05:40:52;;;;;;;23.52;4.47;;;;;;;10.91;100.00;102220.47;4914087;29;20048;-71
2023/05/27 05:43:19;;;;;;;17.48;4.07;;;;;;;10.85;100.00;102238.91;4905718;29;20086;-71
2023/05/27 05:45:46;;;;;;;21.65;4.78;;;;;;;10.99;100.00;102244.84;4914492;29;20047;-72
2023/05/27 05:48:13;;;;;;;18.58;3.80;;;;;;;10.98;100.00;102239.59;4914459;29;20052;-71
2023/05/27 05:50:40;;;;;;;13.60;4.18;;;;;;;11.05;100.00;102226.53;4915225;29;20044;-71
2023/05/27 05:53:07;;;;;;;17.20;4.65;;;;;;;11.06;100.00;102233.59;4914461;29;20048;-71
2023/05/27 05:55:34;;;;;;;18.45;4.68;;;;;;;10.91;100.00;102230.34;4898413;29;20055;-71
2023/05/27 05:58:00;;;;;;;16.67;4.22;;;;;;;11.10;100.00;102225.19;4914564;29;20052;-71
2023/05/27 06:00:28;;;;;;;19.92;3.92;;;;;;;11.13;100.00;102232.13;4914851;29;20104;-71
2023/05/27 06:02:54;;;;;;;15.43;3.50;;;;;;;11.21;100.00;102229.66;4914886;29;20070;-71
2023/05/27 06:05:22;;;;;;;15.77;3.65;;;;;;;11.28;100.00;102230.00;4915044;29;20058;-72
2023/05/27 06:07:48;;;;;;;17.48;4.53;;;;;;;10.96;98.57;102234.38;4914651;29;20477;-71
2023/05/27 06:10:16;;;;;;;14.77;3.88;;;;;;;10.86;95.30;102238.78;4914426;29;20075;-70
2023/05/27 06:12:43;;;;;;;18.65;4.20;;;;;;;11.21;94.20;102232.34;4914840;29;20562;-70
2023/05/27 06:15:10;;;;;;;13.27;3.47;;;;;;;11.47;87.77;102232.84;4914851;29;20048;-71
2023/05/27 06:17:36;;;;;;;22.52;3.42;;;;;;;11.58;83.97;102250.75;4913671;29;20052;-71
2023/05/27 06:20:04;;;;;;;15.38;4.07;;;;;;;11.41;80.77;102250.34;4914992;29;20135;-70
2023/05/27 06:22:31;;;;;;;10.35;3.22;;;;;;;11.42;83.30;102246.66;4914660;29;20051;-72
2023/05/27 06:24:57;;;;;;;12.65;3.47;;;;;;;11.61;81.46;102245.13;4914817;29;20063;-71
2023/05/27 06:27:24;;;;;;;13.38;3.13;;;;;;;11.75;77.37;102244.81;4914740;29;20083;-73
2023/05/27 06:29:51;;;;;;;9.35;3.03;;;;;;;11.76;76.30;102249.25;4918900;29;20111;-72
2023/05/27 06:32:17;;;;;;;11.52;3.08;;;;;;;11.59;74.96;102241.72;4933883;29;20059;-72
2023/05/27 06:34:44;;;;;;;11.23;2.80;;;;;;;11.90;72.51;102254.28;4935824;29;20047;-71
2023/05/27 06:37:10;;;;;;;9.15;2.88;;;;;;;11.82;70.94;102254.06;4937632;29;20103;-71
2023/05/27 06:39:37;;;;;;;11.48;2.80;;;;;;;11.60;71.69;102251.47;4937334;29;20047;-70
2023/05/27 06:42:03;;;;;;;10.15;2.70;;;;;;;11.25;68.29;102249.91;4937287;29;20131;-71
2023/05/27 06:44:30;;;;;;;11.63;2.50;;;;;;;11.81;66.04;102255.06;4937131;29;20059;-71
2023/05/27 06:46:57;;;;;;;7.00;2.08;;;;;;;11.90;63.54;102251.59;4937159;29;20052;-71
2023/05/27 06:49:23;;;;;;;14.82;2.78;;;;;;;12.19;63.42;102247.38;4937249;29;20055;-72
2023/05/27 06:51:50;;;;;;;9.98;2.20;;;;;;;12.29;63.37;102259.03;4937341;29;20052;-71
2023/05/27 06:54:16;;;;;;;7.03;1.40;;;;;;;12.16;52.60;102257.41;4926336;29;20044;-72
2023/05/27 06:56:43;;;;;;;8.15;2.03;;;;;;;12.45;54.21;102247.75;4937947;29;20362;-71
2023/05/27 06:59:09;;;;;;;8.32;1.92;;;;;;;12.49;54.65;102252.75;4936852;29;20050;-79
2023/05/27 07:01:36;;;;;;;9.70;2.22;;;;;;;12.77;54.69;102255.72;4936919;29;20477;-78
2023/05/27 07:04:03;;;;;;;5.32;1.30;;;;;;;12.23;51.04;102252.34;4936644;29;20052;-78
2023/05/27 07:06:30;;;;;;;5.28;1.80;;;;;;;12.34;50.48;102248.72;4936872;29;20062;-78
2023/05/27 07:08:56;;;;;;;3.53;1.40;;;;;;;12.90;48.96;102250.06;4936878;29;20136;-78
2023/05/27 07:11:23;;;;;;;2.92;1.17;;;;;;;13.02;49.59;102249.81;4936862;29;20116;-79
2023/05/27 07:13:49;;;;;;;3.05;1.25;;;;;;;13.32;48.62;102246.16;4935572;29;20091;-78
2023/05/27 07:16:16;;;;;;;4.38;1.40;;;;;;;13.45;47.69;102245.03;4936464;29;20048;-75
2023/05/27 07:18:43;;;;;;;7.25;1.40;;;;;;;13.97;46.77;102238.31;4931583;29;20051;-77
2023/05/27 07:21:09;;;;;;;5.95;1.48;;;;;;;13.39;43.68;102235.69;4936247;29;20043;-77
2023/05/27 07:23:36;;;;;;;4.85;1.58;;;;;;;13.28;42.22;102242.06;4936066;29;20384;-78
2023/05/27 07:26:03;;;;;;;5.05;1.20;;;;;;;13.44;43.00;102254.13;4936691;29;20471;-78
2023/05/27 07:28:29;;;;;;;4.82;1.27;;;;;;;13.86;42.02;102243.03;4936131;29;20079;-78
2023/05/27 07:30:56;;;;;;;3.17;1.38;;;;;;;14.80;41.35;102243.00;4924107;29;20086;-78
2023/05/27 07:33:22;;;;;;;9.27;1.38;;;;;;;15.54;40.94;102231.09;4915899;29;20068;-77
2023/05/27 07:35:49;;;;;;;5.30;1.30;;;;;;;15.96;40.58;102231.25;4917192;29;20104;-75
2023/05/27 07:38:16;;;;;;;4.40;1.40;;;;;;;16.76;38.93;102234.56;4902415;29;20044;-73
2023/05/27 07:40:42;;;;;;;3.15;1.10;;;;;;;17.02;35.06;102217.34;4928431;29;20103;-71
2023/05/27 07:43:09;;;;;;;1.70;1.02;;;;;;;17.42;35.76;102224.72;4928398;29;20048;-71
2023/05/27 07:45:35;;;;;;;4.22;1.67;;;;;;;17.74;35.21;102218.41;4927809;29;20048;-71
2023/05/27 07:48:02;;;;;;;5.78;1.20;;;;;;;17.51;34.29;102217.41;4928339;29;20112;-70
2023/05/27 07:50:28;;;;;;;4.05;1.20;;;;;;;17.89;34.25;102205.00;4927667;29;20379;-71
2023/05/27 07:52:55;;;;;;;4.15;1.35;;;;;;;17.31;34.02;102215.00;4925673;29;20465;-71
2023/05/27 07:55:22;;;;;;;2.58;1.27;;;;;;;17.12;33.58;102213.44;4908680;29;20401;-71
2023/05/27 07:57:49;;;;;;;4.47;1.20;;;;;;;16.53;33.87;102214.47;4925017;29;20397;-71
2023/05/27 08:00:16;;;;;;;2.80;1.30;;;;;;;16.97;34.62;102207.00;4926330;29;20052;-71
2023/05/27 08:02:43;;;;;;;4.57;1.20;;;;;;;17.02;33.23;102196.50;4926347;29;20099;-71
2023/05/27 08:05:10;;;;;;;3.97;1.27;;;;;;;18.06;33.13;102194.94;4927118;29;20103;-71
2023/05/27 08:07:36;;;;;;;9.48;1.17;;;;;;;18.31;32.06;102187.59;4926498;29;20055;-72
2023/05/27 08:10:04;;;;;;;4.30;1.27;;;;;;;18.78;31.55;102192.13;4926116;29;20060;-72
2023/05/27 08:12:30;;;;;;;4.95;1.10;;;;;;;19.20;31.35;102177.22;4925653;29;20107;-71
2023/05/27 08:14:57;;;;;;;2.25;1.02;;;;;;;17.90;30.31;102181.41;4923056;29;20048;-70
2023/05/27 08:17:23;;;;;;;4.85;1.23;;;;;;;17.58;31.11;102181.31;4905289;29;20044;-71
2023/05/27 08:19:50;;;;;;;3.85;1.00;;;;;;;18.84;30.41;102183.25;4922574;29;20468;-71
2023/05/27 08:22:17;;;;;;;5.88;1.13;;;;;;;18.71;29.41;102174.81;4921372;29;20087;-71
2023/05/27 08:24:43;;;;;;;2.13;0.73;;;;;;;19.48;29.66;102181.09;4923045;29;20071;-71
2023/05/27 08:27:15;;;;;;;4.40;1.60;;;;;;;20.03;28.29;102170.00;4921516;29;20567;-71
2023/05/27 08:29:42;;;;;;;5.68;1.20;;;;;;;19.38;28.27;102168.75;4924214;29;20048;-72
2023/05/27 08:32:09;;;;;;;3.13;1.27;;;;;;;19.36;28.07;102170.81;4941047;29;20079;-73
2023/05/27 08:34:36;;;;;;;2.78;0.98;;;;;;;18.70;28.03;102173.13;4940331;29;20134;-72
2023/05/27 08:37:03;;;;;;;3.63;1.42;;;;;;;18.47;28.12;102163.06;4943327;29;20061;-67
2023/05/27 08:39:30;;;;;;;3.17;1.33;;;;;;;18.96;28.59;102157.34;4944046;29;20047;-68
2023/05/27 08:41:58;;;;;;;3.08;1.20;;;;;;;19.99;29.15;102157.78;4941758;29;20052;-68
2023/05/27 08:44:25;;;;;;;3.53;1.40;;;;;;;20.60;28.15;102156.53;4942655;29;20373;-68
2023/05/27 08:46:51;;;;;;;8.15;1.30;;;;;;;20.66;28.23;102146.72;4928113;29;20508;-69
2023/05/27 08:49:18;;;;;;;3.10;1.00;;;;;;;20.57;27.29;102143.28;4945583;29;20047;-69
2023/05/27 08:51:46;;;;;;;2.22;0.90;;;;;;;20.59;31.63;102143.06;4945512;29;20043;-69
2023/05/27 08:54:12;;;;;;;5.80;1.38;;;;;;;20.39;27.96;102142.81;4945561;29;20123;-70
2023/05/27 08:56:40;;;;;;;2.70;1.13;;;;;;;20.29;28.21;102134.94;4944853;29;20499;-68
2023/05/27 08:59:07;;;;;;;3.30;0.90;;;;;;;21.51;26.95;102136.84;4942655;29;20055;-69
2023/05/27 09:01:34;;;;;;;3.17;1.20;;;;;;;22.00;25.97;102131.28;4942204;29;20490;-70
2023/05/27 09:04:01;;;;;;;4.78;1.10;;;;;;;22.18;25.35;102125.25;4942933;29;20377;-68
2023/05/27 09:06:28;;;;;;;2.53;1.10;;;;;;;22.29;25.57;102121.09;4941986;29;20122;-69
2023/05/27 09:08:55;;;;;;;4.25;1.05;;;;;;;21.30;24.39;102135.00;4940369;29;20071;-68
2023/05/27 09:11:26;;;;;;;6.32;1.10;;;;;;;20.60;27.45;102136.59;4941139;28;20435;-68
2023/05/27 09:13:56;;;;;;;;;;;;;;;21.57;26.73;102136.03;4943551;29;20047;-68
2023/05/27 09:16:23;;;;;;;5.57;1.20;;;;;;;21.91;29.00;102123.44;4940788;29;19930;-68
2023/05/27 09:18:50;;;;;;;3.30;1.17;;;;;;;21.12;25.61;102130.84;4940699;29;20052;-69
2023/05/27 09:21:17;;;;;;;4.53;1.23;;;;;;;21.44;31.41;102127.75;4941124;29;20051;-69
2023/05/27 09:23:44;;;;;;;3.30;1.38;;;;;;;22.67;27.19;102124.22;4923663;29;20080;-69
2023/05/27 09:26:12;;;;;;;3.83;1.20;;;;;;;23.69;24.77;102117.50;4921633;29;20112;-69
2023/05/27 09:28:40;;;;;;;3.92;1.35;;;;;;;22.65;29.50;102123.56;4922979;29;20504;-69
2023/05/27 09:31:08;;;;;;;5.47;1.60;;;;;;;22.81;23.77;102125.09;4905000;29;20129;-69
2023/05/27 09:33:38;;;;;;;4.13;1.27;;;;;;;22.48;24.54;102127.75;4922189;29;20056;-69
2023/05/27 09:36:07;;;;;;;3.67;1.10;;;;;;;22.39;23.78;102121.56;4923160;29;20071;-68
2023/05/27 09:38:35;;;;;;;2.33;1.27;;;;;;;22.85;23.75;102117.31;4921786;29;20056;-69
2023/05/27 09:41:02;;;;;;;3.42;1.73;;;;;;;22.58;24.35;102117.25;4923338;29;20191;-70
2023/05/27 09:43:29;;;;;;;3.92;1.38;;;;;;;20.52;25.78;102123.06;4922774;29;20108;-69
2023/05/27 09:46:01;;;;;;;6.40;1.70;;;;;;;20.33;26.62;102122.63;4921281;29;20044;-66
2023/05/27 09:48:31;;;;;;;3.03;1.58;;;;;;;20.29;25.72;102118.59;4921898;29;20056;-67
2023/05/27 09:51:03;;;;;;;4.43;1.67;;;;;;;20.19;26.46;102118.03;4923037;29;20058;-67
2023/05/27 09:53:30;;;;;;;;;;;;;;;21.52;25.46;102114.78;4924588;29;20052;-68
2023/05/27 09:55:57;;;;;;;4.90;1.67;;;;;;;20.05;26.14;102113.47;4920244;29;19927;-68
2023/05/27 09:58:24;;;;;;;6.63;2.10;;;;;;;20.66;26.45;102100.34;4921550;29;20052;-69
2023/05/27 10:00:52;;;;;;;5.32;1.50;;;;;;;20.67;25.38;102102.06;4922096;29;20052;-68
2023/05/27 10:03:21;;;;;;;7.40;1.58;;;;;;;19.23;26.83;102104.25;4920037;29;20048;-67
2023/05/27 10:05:50;;;;;;;3.03;1.70;;;;;;;19.88;28.02;102110.94;4923091;29;20103;-71
2023/05/27 10:08:19;;;;;;;2.67;1.40;;;;;;;21.38;27.31;102102.91;4923182;29;20048;-67
2023/05/27 10:10:52;;;;;;;6.55;1.50;;;;;;;22.55;25.67;102091.16;4924391;29;20044;-68
2023/05/27 10:13:20;;;;;;;3.22;1.33;;;;;;;23.73;26.18;102085.03;4923601;29;20048;-68
2023/05/27 10:15:51;;;;;;;3.95;1.52;;;;;;;23.07;24.62;102090.59;4925994;29;20056;-67
2023/05/27 10:18:27;;;;;;;4.70;1.53;;;;;;;23.42;27.70;102083.00;4924975;29;20043;-71
2023/05/27 10:20:54;;;;;;;4.97;1.60;;;;;;;24.08;24.81;102082.81;4924735;29;20100;-68
2023/05/27 10:23:25;;;;;;;3.08;1.50;;;;;;;24.44;24.63;102078.69;4924517;29;20048;-69
2023/05/27 10:25:55;;;;;;;4.22;1.50;;;;;;;24.02;25.34;102080.09;4923689;29;20063;-69
2023/05/27 10:28:35;;;;;;;4.32;1.50;;;;;;;23.61;26.42;102084.03;4923421;29;20052;-69
2023/05/27 10:31:14;;;;;;;3.00;1.48;;;;;;;24.25;22.51;102074.09;4923901;29;20048;-69
2023/05/27 10:33:46;;;;;;;3.92;1.40;;;;;;;23.54;25.96;102077.69;4925418;29;20048;-69
2023/05/27 10:36:15;;;;;;;6.20;1.30;;;;;;;23.86;25.01;102075.97;4943702;29;20048;-68
2023/05/27 10:38:42;;;;;;;4.45;1.30;;;;;;;23.38;26.67;102065.31;4944955;29;20043;-67
2023/05/27 10:41:10;;;;;;;3.60;1.52;;;;;;;23.97;25.93;102064.31;4927127;29;20043;-70
2023/05/27 10:43:36;;;;;;;4.55;1.35;;;;;;;23.04;26.33;102059.81;4944928;29;20058;-67
2023/05/27 10:46:12;;;;;;;2.47;1.40;;;;;;;22.01;23.86;102061.06;4945026;29;20054;-68
2023/05/27 10:48:39;;;;;;;2.30;1.40;;;;;;;20.43;25.52;102059.66;4945248;29;20047;-67
2023/05/27 10:51:07;;;;;;;3.97;1.42;;;;;;;20.20;26.01;102060.63;4946286;29;20067;-69
2023/05/27 10:53:37;;;;;;;3.92;1.27;;;;;;;20.78;25.96;102070.69;4946134;29;20059;-68
2023/05/27 10:56:04;;;;;;;5.47;1.73;;;;;;;20.93;28.10;102057.81;4945738;29;20054;-66
2023/05/27 10:58:34;;;;;;;2.97;1.40;;;;;;;21.54;26.24;102049.06;4945987;29;20155;-67
2023/05/27 11:01:07;;;;;;;4.68;1.60;;;;;;;21.04;29.40;102046.38;4947207;29;20051;-68
2023/05/27 11:03:34;;;;;;;2.95;1.50;;;;;;;20.44;28.93;102044.97;4929970;29;20060;-68
2023/05/27 11:06:05;;;;;;;3.70;1.65;;;;;;;20.89;27.15;102041.00;4946258;29;20051;-67
2023/05/27 11:08:32;;;;;;;;;;;;;;;20.80;27.67;102039.47;4945039;29;20051;-69
2023/05/27 11:11:03;;;;;;;3.85;1.42;;;;;;;20.56;26.86;102043.44;4944621;29;19953;-68
2023/05/27 11:13:34;;;;;;;3.55;1.60;;;;;;;19.15;26.97;102033.63;4943081;29;20102;-68
2023/05/27 11:16:03;;;;;;;2.55;1.50;;;;;;;18.46;27.62;102036.38;4945184;29;20043;-67
2023/05/27 11:18:38;;;;;;;3.95;1.50;;;;;;;18.25;27.92;102026.16;4928484;29;20396;-67
2023/05/27 11:21:06;;;;;;;2.72;1.70;;;;;;;17.58;29.20;102029.34;4943351;29;20393;-67
2023/05/27 11:23:42;;;;;;;5.07;2.10;;;;;;;18.58;28.45;102020.47;4943427;29;20056;-68
2023/05/27 11:26:13;;;;;;;5.15;1.60;;;;;;;19.09;30.00;102018.03;4944066;29;20075;-68
2023/05/27 11:28:50;;;;;;;4.28;1.63;;;;;;;18.85;28.28;102016.34;4944888;29;20043;-68